Аэропорт: Актау. Актау

ICAO: UATE

METAR:
2019-07-23 18:30:00
UATE 231830Z 03009MPS 9999 SCT060CB 30/14 Q1007 R12/0///70 NOSIG RMK QFE753/1004
METAR:
2019-07-23 17:04:00
TAF UATE 231704Z 2318/2418 06006G12MPS 9999 SCT060CB TX36/2410Z TN24/2401Z